createdAt,value
2023-05-18T00:00:00.038Z,0
2023-05-18T00:01:16.289Z,0
2023-05-18T00:02:32.531Z,0
2023-05-18T00:03:47.849Z,0
2023-05-18T00:05:04.099Z,0
2023-05-18T00:06:20.349Z,0
2023-05-18T00:07:36.598Z,0
2023-05-18T00:08:52.851Z,0
2023-05-18T00:10:09.088Z,0
2023-05-18T00:11:25.341Z,0
2023-05-18T00:12:41.591Z,0
2023-05-18T00:13:57.846Z,0
2023-05-18T00:15:14.099Z,0
2023-05-18T00:16:30.345Z,0
2023-05-18T00:17:46.592Z,0
2023-05-18T00:19:02.846Z,0
2023-05-18T00:20:18.152Z,0
2023-05-18T00:21:34.407Z,0
2023-05-18T00:22:50.650Z,0
2023-05-18T00:24:06.903Z,0
2023-05-18T00:25:23.153Z,0
2023-05-18T00:26:39.403Z,0
2023-05-18T00:27:55.657Z,0
2023-05-18T00:29:11.904Z,0
2023-05-18T00:30:28.156Z,0
2023-05-18T00:31:44.405Z,0
2023-05-18T00:33:00.657Z,0
2023-05-18T00:34:16.901Z,0
2023-05-18T00:35:33.153Z,0
2023-05-18T00:36:48.455Z,0
2023-05-18T00:38:04.708Z,0
2023-05-18T00:39:20.960Z,0
2023-05-18T00:40:37.208Z,0
2023-05-18T00:41:53.470Z,0
2023-05-18T00:43:09.719Z,0
2023-05-18T00:44:25.955Z,0
2023-05-18T00:45:42.224Z,0
2023-05-18T00:46:58.467Z,0
2023-05-18T00:48:14.714Z,0
2023-05-18T00:49:30.989Z,0
2023-05-18T00:50:47.209Z,0
2023-05-18T00:52:03.467Z,0
2023-05-18T00:53:18.773Z,0
2023-05-18T00:54:35.028Z,0
2023-05-18T00:55:51.279Z,0
2023-05-18T00:57:07.525Z,0
2023-05-18T00:58:23.776Z,0
2023-05-18T00:59:40.021Z,0
2023-05-18T01:00:56.281Z,0
2023-05-18T01:02:12.524Z,0
2023-05-18T01:03:28.777Z,0
2023-05-18T01:04:45.023Z,0
2023-05-18T01:06:01.277Z,0
2023-05-18T01:07:17.524Z,0
2023-05-18T01:08:33.777Z,0
2023-05-18T01:09:49.080Z,0
2023-05-18T01:11:05.332Z,0
2023-05-18T01:12:21.590Z,0
2023-05-18T01:13:37.838Z,0
2023-05-18T01:14:54.086Z,0
2023-05-18T01:16:10.333Z,0
2023-05-18T01:17:26.583Z,0
2023-05-18T01:18:42.836Z,0
2023-05-18T01:19:59.091Z,0
2023-05-18T01:21:10.000Z,0
2023-05-18T01:22:31.609Z,0
2023-05-18T01:23:47.846Z,0
2023-05-18T01:24:59.000Z,0
2023-05-18T01:26:19.391Z,0
2023-05-18T01:27:35.644Z,0
2023-05-18T01:28:51.904Z,0
2023-05-18T01:30:08.155Z,0
2023-05-18T01:31:24.394Z,0
2023-05-18T01:32:40.659Z,0
2023-05-18T01:33:56.902Z,0
2023-05-18T01:35:13.150Z,0
2023-05-18T01:36:29.397Z,0
2023-05-18T01:37:45.645Z,0
2023-05-18T01:39:01.899Z,0
2023-05-18T01:40:18.151Z,0
2023-05-18T01:41:34.397Z,0
2023-05-18T01:42:49.715Z,0
2023-05-18T01:44:05.959Z,0
2023-05-18T01:45:22.205Z,0
2023-05-18T01:46:38.460Z,0
2023-05-18T01:47:54.709Z,0
2023-05-18T01:49:10.965Z,0
2023-05-18T01:50:26.280Z,0
2023-05-18T01:51:42.532Z,0
2023-05-18T01:52:58.784Z,0
2023-05-18T01:54:15.027Z,0
2023-05-18T01:55:31.283Z,0
2023-05-18T01:56:47.534Z,0
2023-05-18T01:58:03.781Z,0
2023-05-18T01:59:20.035Z,0
2023-05-18T02:00:36.281Z,0
2023-05-18T02:01:52.529Z,0
2023-05-18T02:03:08.780Z,0
2023-05-18T02:04:25.029Z,0
2023-05-18T02:05:41.277Z,0
2023-05-18T02:06:56.580Z,0
2023-05-18T02:08:12.837Z,0
2023-05-18T02:09:29.085Z,0
2023-05-18T02:10:45.332Z,0
2023-05-18T02:12:01.580Z,0
2023-05-18T02:13:17.834Z,0
2023-05-18T02:14:34.079Z,0
2023-05-18T02:15:50.325Z,0
2023-05-18T02:17:06.576Z,0
2023-05-18T02:18:22.825Z,0
2023-05-18T02:19:39.073Z,0
2023-05-18T02:20:55.320Z,0
2023-05-18T02:22:11.567Z,0
2023-05-18T02:23:26.879Z,0
2023-05-18T02:24:43.129Z,0
2023-05-18T02:25:59.375Z,0
2023-05-18T02:27:15.630Z,0
2023-05-18T02:28:31.873Z,0
2023-05-18T02:29:48.126Z,0
2023-05-18T02:31:04.390Z,0
2023-05-18T02:32:20.624Z,0
2023-05-18T02:33:36.871Z,0
2023-05-18T02:34:53.126Z,0
2023-05-18T02:36:09.369Z,0
2023-05-18T02:37:25.633Z,0
2023-05-18T02:38:41.874Z,0
2023-05-18T02:39:57.174Z,0
2023-05-18T02:41:13.424Z,0
2023-05-18T02:42:29.689Z,0
2023-05-18T02:43:45.927Z,0
2023-05-18T02:45:02.168Z,0
2023-05-18T02:46:18.422Z,0
2023-05-18T02:47:34.662Z,0
2023-05-18T02:48:50.920Z,0
2023-05-18T02:50:07.174Z,0
2023-05-18T02:51:23.413Z,0
2023-05-18T02:52:39.662Z,0
2023-05-18T02:53:55.916Z,0
2023-05-18T02:55:12.164Z,0
2023-05-18T02:56:28.408Z,4
2023-05-18T02:57:44.658Z,4
2023-05-18T02:58:59.964Z,4
2023-05-18T03:00:11.000Z,4
2023-05-18T03:01:32.471Z,4
2023-05-18T03:02:48.713Z,8
2023-05-18T03:04:04.960Z,4
2023-05-18T03:05:21.209Z,8
2023-05-18T03:06:37.459Z,8
2023-05-18T03:07:53.712Z,8
2023-05-18T03:09:09.951Z,12
2023-05-18T03:10:26.209Z,12
2023-05-18T03:11:37.000Z,16
2023-05-18T03:12:58.704Z,20
2023-05-18T03:15:31.198Z,28
2023-05-18T03:16:46.495Z,32
2023-05-18T03:17:57.000Z,36
2023-05-18T03:19:19.008Z,48
2023-05-18T03:20:35.244Z,56
2023-05-18T03:21:51.497Z,68
2023-05-18T03:23:07.745Z,76
2023-05-18T03:24:23.997Z,92
2023-05-18T03:25:40.241Z,112
2023-05-18T03:26:56.491Z,128
2023-05-18T03:28:07.000Z,148
2023-05-18T03:29:24.000Z,172
2023-05-18T03:30:40.000Z,196
2023-05-18T03:32:01.492Z,224
2023-05-18T03:33:16.792Z,256
2023-05-18T03:34:33.038Z,292
2023-05-18T03:35:49.286Z,332
2023-05-18T03:37:05.539Z,372
2023-05-18T03:38:21.785Z,420
2023-05-18T03:39:38.036Z,472
2023-05-18T03:40:54.287Z,524
2023-05-18T03:42:10.537Z,584
2023-05-18T03:43:21.000Z,652
2023-05-18T03:44:43.032Z,724
2023-05-18T03:45:59.288Z,800
2023-05-18T03:47:15.530Z,884
2023-05-18T03:48:31.789Z,972
2023-05-18T03:49:48.031Z,1064
2023-05-18T03:51:03.326Z,1164
2023-05-18T03:52:19.581Z,1264
2023-05-18T03:53:35.826Z,1372
2023-05-18T03:54:52.074Z,1484
2023-05-18T03:56:08.324Z,1596
2023-05-18T03:57:24.576Z,1716
2023-05-18T03:58:40.822Z,1836
2023-05-18T03:59:57.071Z,1956
2023-05-18T04:01:13.321Z,2088
2023-05-18T04:02:29.569Z,2220
2023-05-18T04:03:45.823Z,2352
2023-05-18T04:05:02.061Z,2492
2023-05-18T04:06:18.312Z,2640
2023-05-18T04:07:33.620Z,2792
2023-05-18T04:10:06.128Z,3100
2023-05-18T04:11:22.372Z,3252
2023-05-18T04:12:38.617Z,3404
2023-05-18T04:13:54.870Z,3604
2023-05-18T04:15:11.112Z,3768
2023-05-18T04:16:27.363Z,3924
2023-05-18T04:17:43.611Z,4132
2023-05-18T04:18:59.867Z,4308
2023-05-18T04:20:11.000Z,4492
2023-05-18T04:21:32.361Z,4712
2023-05-18T04:22:48.611Z,4932
2023-05-18T04:24:04.855Z,5076
2023-05-18T04:25:20.148Z,5388
2023-05-18T04:26:36.401Z,5652
2023-05-18T04:27:52.652Z,5744
2023-05-18T04:29:08.900Z,5888
2023-05-18T04:30:25.143Z,6368
2023-05-18T04:31:41.394Z,6744
2023-05-18T04:32:57.651Z,7008
2023-05-18T04:34:13.887Z,7228
2023-05-18T04:35:25.000Z,7320
2023-05-18T04:36:46.392Z,7352
2023-05-18T04:38:02.656Z,7500
2023-05-18T04:39:18.890Z,8064
2023-05-18T04:40:35.135Z,8376
2023-05-18T04:41:50.445Z,8600
2023-05-18T04:43:06.694Z,8772
2023-05-18T04:44:22.939Z,9092
2023-05-18T04:45:39.197Z,9468
2023-05-18T04:46:55.443Z,9804
2023-05-18T04:48:11.689Z,10208
2023-05-18T04:49:27.944Z,10600
2023-05-18T04:50:44.181Z,10780
2023-05-18T04:52:00.441Z,11032
2023-05-18T04:53:16.686Z,11284
2023-05-18T04:54:32.934Z,11612
2023-05-18T04:55:49.183Z,11680
2023-05-18T04:57:05.429Z,12076
2023-05-18T04:58:20.732Z,12428
2023-05-18T04:59:36.984Z,12860
2023-05-18T05:00:53.228Z,13216
2023-05-18T05:02:09.477Z,13384
2023-05-18T05:03:25.731Z,13816
2023-05-18T05:04:41.981Z,14720
2023-05-18T05:05:58.231Z,14528
2023-05-18T05:07:09.000Z,14592
2023-05-18T05:08:30.722Z,15136
2023-05-18T05:09:46.971Z,16256
2023-05-18T05:11:03.221Z,16320
2023-05-18T05:12:19.473Z,16192
2023-05-18T05:13:35.722Z,16416
2023-05-18T05:14:51.026Z,16768
2023-05-18T05:16:07.280Z,17696
2023-05-18T05:17:23.519Z,17920
2023-05-18T05:18:39.769Z,18400
2023-05-18T05:19:56.023Z,19488
2023-05-18T05:21:12.267Z,19744
2023-05-18T05:22:28.519Z,19296
2023-05-18T05:23:44.764Z,19616
2023-05-18T05:25:01.016Z,21152
2023-05-18T05:26:17.264Z,21440
2023-05-18T05:27:33.515Z,20960
2023-05-18T05:28:49.766Z,22784
2023-05-18T05:30:06.007Z,23040
2023-05-18T05:31:22.262Z,22912
2023-05-18T05:32:37.559Z,22240
2023-05-18T05:33:53.810Z,23200
2023-05-18T05:35:05.000Z,23840
2023-05-18T05:36:26.312Z,24384
2023-05-18T05:37:42.551Z,23872
2023-05-18T05:38:58.805Z,24768
2023-05-18T05:40:15.059Z,26240
2023-05-18T05:41:31.301Z,25248
2023-05-18T05:42:47.556Z,25408
2023-05-18T05:44:03.804Z,25728
2023-05-18T05:45:20.054Z,25312
2023-05-18T05:46:36.295Z,26016
2023-05-18T05:47:52.554Z,25184
2023-05-18T05:49:07.852Z,27840
2023-05-18T05:50:24.103Z,27872
2023-05-18T05:52:56.625Z,28896
2023-05-18T05:54:12.872Z,29728
2023-05-18T05:55:29.124Z,28960
2023-05-18T05:56:45.378Z,30080
2023-05-18T05:58:01.624Z,28992
2023-05-18T05:59:17.872Z,28576
2023-05-18T06:00:34.116Z,30880
2023-05-18T06:01:50.363Z,30272
2023-05-18T06:03:06.614Z,29312
2023-05-18T06:04:22.860Z,30976
2023-05-18T06:05:33.000Z,30368
2023-05-18T06:06:54.431Z,30272
2023-05-18T06:08:10.683Z,30432
2023-05-18T06:09:26.930Z,29568
2023-05-18T06:10:38.000Z,32832
2023-05-18T06:11:59.425Z,33600
2023-05-18T06:13:15.671Z,32416
2023-05-18T06:14:31.927Z,31264
2023-05-18T06:15:48.167Z,36704
2023-05-18T06:17:04.426Z,37216
2023-05-18T06:18:20.672Z,34240
2023-05-18T06:19:36.916Z,36672
2023-05-18T06:20:53.178Z,34400
2023-05-18T06:22:09.426Z,34944
2023-05-18T06:23:25.664Z,38976
2023-05-18T06:25:57.211Z,35904
2023-05-18T06:27:13.460Z,36064
2023-05-18T06:28:29.707Z,37664
2023-05-18T06:29:45.961Z,38112
2023-05-18T06:31:02.201Z,39136
2023-05-18T06:32:18.452Z,37888
2023-05-18T06:33:34.704Z,38848
2023-05-18T06:34:50.951Z,37568
2023-05-18T06:36:07.203Z,37376
2023-05-18T06:37:23.455Z,38784
2023-05-18T06:38:39.695Z,39648
2023-05-18T06:39:55.950Z,38144
2023-05-18T06:41:11.245Z,34048
2023-05-18T06:42:27.487Z,33184
2023-05-18T06:43:43.745Z,36000
2023-05-18T06:44:55.000Z,38016
2023-05-18T06:46:16.241Z,37408
2023-05-18T06:47:32.501Z,36192
2023-05-18T06:48:48.741Z,40288
2023-05-18T06:50:04.984Z,44544
2023-05-18T06:51:21.236Z,43488
2023-05-18T06:52:37.479Z,44640
2023-05-18T06:53:53.729Z,42656
2023-05-18T06:55:09.979Z,51360
2023-05-18T06:56:26.227Z,47328
2023-05-18T06:57:41.528Z,44032
2023-05-18T06:58:57.769Z,48128
2023-05-18T07:00:14.019Z,53440
2023-05-18T07:01:30.269Z,57344
2023-05-18T07:02:46.527Z,58496
2023-05-18T07:04:02.762Z,60288
2023-05-18T07:05:19.021Z,60544
2023-05-18T07:07:51.522Z,64064
2023-05-18T07:09:07.769Z,62080
2023-05-18T07:10:24.011Z,57056
2023-05-18T07:11:40.264Z,60896
2023-05-18T07:12:56.508Z,73152
2023-05-18T07:14:12.755Z,77344
2023-05-18T07:15:28.067Z,69280
2023-05-18T07:16:44.315Z,59136
2023-05-18T07:18:00.559Z,59456
2023-05-18T07:19:16.806Z,64992
2023-05-18T07:20:33.080Z,63072
2023-05-18T07:21:49.308Z,61472
2023-05-18T07:23:05.553Z,75840
2023-05-18T07:24:21.806Z,67296
2023-05-18T07:25:38.059Z,60416
2023-05-18T07:26:54.305Z,64128
2023-05-18T07:28:10.553Z,64064
2023-05-18T07:29:26.805Z,67872
2023-05-18T07:30:43.057Z,67328
2023-05-18T07:31:59.300Z,72640
2023-05-18T07:33:15.545Z,71840
2023-05-18T07:34:30.852Z,58944
2023-05-18T07:35:47.108Z,67424
2023-05-18T07:37:03.358Z,65376
2023-05-18T07:38:19.608Z,51616
2023-05-18T07:39:35.847Z,49120
2023-05-18T07:40:52.098Z,62912
2023-05-18T07:42:08.345Z,62368
2023-05-18T07:44:40.849Z,49408
2023-05-18T07:45:57.092Z,54080
2023-05-18T07:47:13.337Z,55584
2023-05-18T07:48:29.591Z,52608
2023-05-18T07:49:45.839Z,51424
2023-05-18T07:51:01.152Z,64192
2023-05-18T07:52:17.388Z,51776
2023-05-18T07:53:33.644Z,63328
2023-05-18T07:54:49.893Z,58880
2023-05-18T07:56:06.144Z,59264
2023-05-18T07:57:17.000Z,55840
2023-05-18T07:58:38.637Z,54944
2023-05-18T07:59:54.886Z,56576
2023-05-18T08:01:11.126Z,56544
2023-05-18T08:02:27.378Z,61216
2023-05-18T08:03:43.636Z,60384
2023-05-18T08:04:59.881Z,64320
2023-05-18T08:06:16.132Z,62560
2023-05-18T08:07:31.428Z,60640
2023-05-18T08:08:47.684Z,62432
2023-05-18T08:10:03.928Z,69856
2023-05-18T08:11:20.173Z,60800
2023-05-18T08:12:36.428Z,69472
2023-05-18T08:13:52.671Z,66080
2023-05-18T08:15:08.923Z,57728
2023-05-18T08:16:25.173Z,60320
2023-05-18T08:17:41.432Z,62944
2023-05-18T08:18:57.667Z,61856
2023-05-18T08:20:13.912Z,74624
2023-05-18T08:21:30.172Z,77728
2023-05-18T08:22:46.408Z,66880
2023-05-18T08:24:01.724Z,65632
2023-05-18T08:25:17.977Z,68256
2023-05-18T08:26:34.224Z,65952
2023-05-18T08:27:50.473Z,61024
2023-05-18T08:29:06.715Z,64320
2023-05-18T08:30:22.975Z,65600
2023-05-18T08:31:39.220Z,65728
2023-05-18T08:32:55.466Z,66240
2023-05-18T08:34:11.711Z,70240
2023-05-18T08:35:27.965Z,67584
2023-05-18T08:36:44.213Z,67232
2023-05-18T08:38:00.462Z,67200
2023-05-18T08:39:16.707Z,72480
2023-05-18T08:40:32.013Z,70528
2023-05-18T08:41:48.261Z,64992
2023-05-18T08:43:04.513Z,67456
2023-05-18T08:44:20.756Z,73632
2023-05-18T08:45:37.000Z,71968
2023-05-18T08:46:53.253Z,72128
2023-05-18T08:48:09.501Z,73120
2023-05-18T08:49:25.750Z,74528
2023-05-18T08:50:42.008Z,73440
2023-05-18T08:51:58.245Z,70592
2023-05-18T08:53:14.504Z,72320
2023-05-18T08:54:30.738Z,75840
2023-05-18T08:55:46.993Z,80736
2023-05-18T08:57:02.295Z,82944
2023-05-18T08:58:18.546Z,76704
2023-05-18T08:59:34.801Z,78400
2023-05-18T09:00:51.052Z,80896
2023-05-18T09:02:07.298Z,84224
2023-05-18T09:03:23.541Z,82208
2023-05-18T09:04:39.789Z,81696
2023-05-18T09:05:56.043Z,86304
2023-05-18T09:07:12.284Z,85568
2023-05-18T09:09:44.792Z,86976
2023-05-18T09:11:01.031Z,88800
2023-05-18T09:12:17.277Z,87840
2023-05-18T09:13:33.533Z,82080
2023-05-18T09:14:48.837Z,84000
2023-05-18T09:16:05.086Z,89440
2023-05-18T09:17:21.336Z,90304
2023-05-18T09:18:37.588Z,91616
2023-05-18T09:19:53.828Z,89344
2023-05-18T09:21:10.090Z,89792
2023-05-18T09:22:26.334Z,91360
2023-05-18T09:23:37.000Z,92768
2023-05-18T09:24:58.829Z,96416
2023-05-18T09:26:15.076Z,91872
2023-05-18T09:27:31.325Z,30944
2023-05-18T09:28:47.574Z,31520
2023-05-18T09:30:03.813Z,50304
2023-05-18T09:31:19.118Z,104864
2023-05-18T09:32:30.000Z,105920
2023-05-18T09:33:51.616Z,39744
2023-05-18T09:35:07.875Z,35392
2023-05-18T09:36:24.116Z,104224
2023-05-18T09:37:40.362Z,103648
2023-05-18T09:38:56.613Z,105440
2023-05-18T09:40:12.864Z,44320
2023-05-18T09:41:29.115Z,36352
2023-05-18T09:42:45.361Z,58080
2023-05-18T09:44:01.611Z,110304
2023-05-18T09:45:17.857Z,36000
2023-05-18T09:46:34.102Z,36512
2023-05-18T09:47:49.410Z,40224
2023-05-18T09:49:05.664Z,107296
2023-05-18T09:50:21.905Z,49216
2023-05-18T09:51:38.157Z,44640
2023-05-18T09:52:54.403Z,48512
2023-05-18T09:54:10.660Z,51552
2023-05-18T09:55:26.902Z,42752
2023-05-18T09:56:43.152Z,38848
2023-05-18T09:57:59.398Z,37728
2023-05-18T09:59:15.649Z,37376
2023-05-18T10:00:31.905Z,113472
2023-05-18T10:01:48.151Z,108544
2023-05-18T10:03:04.404Z,110976
2023-05-18T10:04:19.702Z,110816
2023-05-18T10:05:35.950Z,111136
2023-05-18T10:06:52.207Z,111328
2023-05-18T10:08:03.000Z,112768
2023-05-18T10:09:24.699Z,128192
2023-05-18T10:10:40.952Z,131136
2023-05-18T10:11:57.192Z,137888
2023-05-18T10:13:13.448Z,146848
2023-05-18T10:14:29.695Z,150848
2023-05-18T10:15:45.938Z,138400
2023-05-18T10:18:18.434Z,136192
2023-05-18T10:19:34.689Z,138784
2023-05-18T10:20:50.003Z,132480
2023-05-18T10:22:06.259Z,126656
2023-05-18T10:23:22.511Z,121184
2023-05-18T10:24:38.748Z,118592
2023-05-18T10:25:54.999Z,118112
2023-05-18T10:27:11.244Z,124032
2023-05-18T10:28:27.499Z,133152
2023-05-18T10:29:43.749Z,131648
2023-05-18T10:31:00.003Z,128544
2023-05-18T10:32:16.242Z,135360
2023-05-18T10:33:32.495Z,144192
2023-05-18T10:34:48.739Z,126112
2023-05-18T10:36:04.988Z,117088
2023-05-18T10:37:20.297Z,119872
2023-05-18T10:38:36.548Z,129792
2023-05-18T10:39:52.793Z,128000
2023-05-18T10:41:09.051Z,128416
2023-05-18T10:42:25.293Z,102656
2023-05-18T10:43:41.539Z,117600
2023-05-18T10:44:57.787Z,104512
2023-05-18T10:46:14.037Z,54624
2023-05-18T10:47:30.284Z,74816
2023-05-18T10:48:46.532Z,47168
2023-05-18T10:50:02.782Z,117984
2023-05-18T10:51:19.031Z,122080
2023-05-18T10:52:35.283Z,120800
2023-05-18T10:53:50.588Z,121920
2023-05-18T10:55:06.846Z,117824
2023-05-18T10:56:23.085Z,53536
2023-05-18T10:57:39.342Z,42240
2023-05-18T10:58:55.588Z,110464
2023-05-18T11:00:11.835Z,114816
2023-05-18T11:01:28.086Z,121920
2023-05-18T11:02:44.330Z,135552
2023-05-18T11:04:00.586Z,65472
2023-05-18T11:05:16.833Z,129792
2023-05-18T11:06:33.076Z,134688
2023-05-18T11:07:49.339Z,99424
2023-05-18T11:09:05.572Z,88608
2023-05-18T11:10:20.879Z,37344
2023-05-18T11:11:37.136Z,76096
2023-05-18T11:12:53.384Z,117376
2023-05-18T11:14:04.000Z,124288
2023-05-18T11:15:20.000Z,84704
2023-05-18T11:16:42.131Z,82560
2023-05-18T11:17:58.375Z,127488
2023-05-18T11:19:14.624Z,115232
2023-05-18T11:20:30.881Z,120000
2023-05-18T11:21:47.122Z,117792
2023-05-18T11:23:03.380Z,121568
2023-05-18T11:24:19.620Z,111968
2023-05-18T11:25:35.870Z,128736
2023-05-18T11:26:51.178Z,47200
2023-05-18T11:28:07.427Z,71360
2023-05-18T11:29:23.679Z,142112
2023-05-18T11:30:39.927Z,96288
2023-05-18T11:33:12.425Z,116160
2023-05-18T11:35:44.934Z,136640
2023-05-18T11:37:01.176Z,134272
2023-05-18T11:38:17.432Z,134688
2023-05-18T11:39:33.699Z,137664
2023-05-18T11:40:49.927Z,148128
2023-05-18T11:42:06.185Z,148704
2023-05-18T11:43:22.432Z,138208
2023-05-18T11:44:37.738Z,144000
2023-05-18T11:45:54.000Z,157696
2023-05-18T11:47:10.234Z,153568
2023-05-18T11:48:26.490Z,154880
2023-05-18T11:49:42.743Z,154976
2023-05-18T11:52:15.244Z,139968
2023-05-18T11:53:30.572Z,134048
2023-05-18T11:54:40.000Z,124512
2023-05-18T11:56:02.124Z,122816
2023-05-18T11:57:18.375Z,124960
2023-05-18T11:58:34.628Z,125888
2023-05-18T11:59:50.881Z,121152
2023-05-18T12:01:07.138Z,113504
2023-05-18T12:02:23.381Z,117696
2023-05-18T12:03:39.625Z,121280
2023-05-18T12:04:55.880Z,110112
2023-05-18T12:06:12.131Z,109024
2023-05-18T12:07:27.467Z,109760
2023-05-18T12:08:42.770Z,107104
2023-05-18T12:09:59.021Z,109184
2023-05-18T12:12:31.524Z,108160
2023-05-18T12:13:47.768Z,99840
2023-05-18T12:14:58.000Z,96160
2023-05-18T12:16:20.273Z,104224
2023-05-18T12:17:36.517Z,112608
2023-05-18T12:18:52.766Z,114304
2023-05-18T12:20:09.023Z,113024
2023-05-18T12:21:25.283Z,112448
2023-05-18T12:22:41.522Z,122112
2023-05-18T12:23:57.769Z,127872
2023-05-18T12:25:13.067Z,125920
2023-05-18T12:26:29.314Z,130080
2023-05-18T12:27:45.566Z,146784
2023-05-18T12:28:56.000Z,173280
2023-05-18T12:30:18.074Z,198496
2023-05-18T12:31:34.321Z,176000
2023-05-18T12:32:50.566Z,125088
2023-05-18T12:34:06.822Z,111360
2023-05-18T12:35:23.072Z,115904
2023-05-18T12:36:39.337Z,106624
2023-05-18T12:37:55.572Z,101824
2023-05-18T12:39:11.824Z,97952
2023-05-18T12:40:28.079Z,99840
2023-05-18T12:41:38.000Z,101120
2023-05-18T12:42:59.623Z,102816
2023-05-18T12:44:15.876Z,112992
2023-05-18T12:45:27.000Z,121568
2023-05-18T12:46:48.378Z,119104
2023-05-18T12:47:59.000Z,115136
2023-05-18T12:49:20.880Z,112256
2023-05-18T12:50:37.125Z,111360
2023-05-18T12:51:53.379Z,112992
2023-05-18T12:53:09.622Z,109024
2023-05-18T12:54:25.876Z,105728
2023-05-18T12:55:42.122Z,101440
2023-05-18T12:56:58.370Z,111264
2023-05-18T12:58:13.686Z,127520
2023-05-18T12:59:29.935Z,130240
2023-05-18T13:00:46.182Z,124608
2023-05-18T13:02:02.434Z,124992
2023-05-18T13:03:18.678Z,123168
2023-05-18T13:04:34.937Z,124480
2023-05-18T13:05:51.186Z,130336
2023-05-18T13:07:07.430Z,125568
2023-05-18T13:08:23.681Z,123648
2023-05-18T13:09:39.932Z,122848
2023-05-18T13:10:56.178Z,118144
2023-05-18T13:12:12.429Z,110624
2023-05-18T13:13:28.683Z,104000
2023-05-18T13:14:43.983Z,102912
2023-05-18T13:16:00.235Z,100352
2023-05-18T13:17:16.490Z,100736
2023-05-18T13:18:32.738Z,103200
2023-05-18T13:19:48.985Z,102496
2023-05-18T13:21:05.234Z,98784
2023-05-18T13:22:21.488Z,95776
2023-05-18T13:23:37.745Z,95776
2023-05-18T13:24:53.980Z,100640
2023-05-18T13:26:05.000Z,104032
2023-05-18T13:27:26.486Z,102016
2023-05-18T13:28:42.735Z,99168
2023-05-18T13:29:58.986Z,97888
2023-05-18T13:31:14.297Z,99072
2023-05-18T13:32:30.550Z,102304
2023-05-18T13:33:46.795Z,100992
2023-05-18T13:35:03.045Z,100256
2023-05-18T13:36:19.296Z,98880
2023-05-18T13:37:35.540Z,99488
2023-05-18T13:38:51.789Z,102304
2023-05-18T13:40:08.049Z,102240
2023-05-18T13:41:24.286Z,98784
2023-05-18T13:42:35.000Z,99680
2023-05-18T13:43:56.792Z,101920
2023-05-18T13:46:29.295Z,99264
2023-05-18T13:47:44.595Z,100384
2023-05-18T13:49:00.855Z,99328
2023-05-18T13:50:11.000Z,98016
2023-05-18T13:51:33.346Z,96416
2023-05-18T13:52:49.596Z,94976
2023-05-18T13:54:05.852Z,93344
2023-05-18T13:55:22.100Z,96672
2023-05-18T13:56:38.349Z,96960
2023-05-18T13:57:54.594Z,92768
2023-05-18T13:59:10.847Z,88864
2023-05-18T14:00:27.095Z,92704
2023-05-18T14:01:43.343Z,97984
2023-05-18T14:02:59.590Z,93280
2023-05-18T14:04:09.000Z,91904
2023-05-18T14:05:31.157Z,98304
2023-05-18T14:06:47.398Z,94752
2023-05-18T14:08:03.650Z,82048
2023-05-18T14:09:19.902Z,80736
2023-05-18T14:10:36.148Z,90176
2023-05-18T14:11:52.405Z,99680
2023-05-18T14:13:08.654Z,94272
2023-05-18T14:14:24.910Z,87872
2023-05-18T14:15:41.143Z,92928
2023-05-18T14:16:57.400Z,101248
2023-05-18T14:18:13.645Z,94080
2023-05-18T14:19:29.903Z,76960
2023-05-18T14:20:45.203Z,65280
2023-05-18T14:22:01.451Z,59648
2023-05-18T14:23:12.000Z,59648
2023-05-18T14:24:33.951Z,62048
2023-05-18T14:25:50.201Z,71520
2023-05-18T14:27:06.448Z,78432
2023-05-18T14:28:22.708Z,74176
2023-05-18T14:29:38.952Z,64768
2023-05-18T14:30:55.194Z,61312
2023-05-18T14:32:11.451Z,66624
2023-05-18T14:33:27.697Z,68608
2023-05-18T14:34:43.953Z,66720
2023-05-18T14:35:59.265Z,61088
2023-05-18T14:37:15.519Z,58048
2023-05-18T14:38:31.758Z,60832
2023-05-18T14:39:48.019Z,64576
2023-05-18T14:41:04.261Z,65056
2023-05-18T14:42:15.000Z,64256
2023-05-18T14:43:36.761Z,64320
2023-05-18T14:44:53.013Z,60928
2023-05-18T14:46:09.261Z,61280
2023-05-18T14:47:25.517Z,62496
2023-05-18T14:48:41.762Z,65248
2023-05-18T14:49:58.010Z,67360
2023-05-18T14:51:14.259Z,61088
2023-05-18T14:52:30.518Z,59360
2023-05-18T14:53:46.763Z,59904
2023-05-18T14:55:02.059Z,61248
2023-05-18T14:56:18.309Z,60768
2023-05-18T14:57:34.570Z,62752
2023-05-18T14:58:50.814Z,67040
2023-05-18T15:00:07.069Z,68480
2023-05-18T15:02:39.563Z,56320
2023-05-18T15:03:55.816Z,55072
2023-05-18T15:05:12.052Z,55584
2023-05-18T15:06:28.311Z,58848
2023-05-18T15:07:44.558Z,58560
2023-05-18T15:09:00.811Z,56480
2023-05-18T15:10:17.060Z,55584
2023-05-18T15:11:32.363Z,53984
2023-05-18T15:12:48.614Z,50336
2023-05-18T15:14:04.863Z,47616
2023-05-18T15:15:21.118Z,46144
2023-05-18T15:16:37.357Z,45472
2023-05-18T15:17:53.603Z,46464
2023-05-18T15:19:04.000Z,46176
2023-05-18T15:20:20.000Z,49504
2023-05-18T15:21:42.361Z,51744
2023-05-18T15:22:58.609Z,51424
2023-05-18T15:24:14.857Z,50240
2023-05-18T15:25:31.113Z,49184
2023-05-18T15:26:47.348Z,48672
2023-05-18T15:28:02.668Z,50560
2023-05-18T15:29:18.908Z,52896
2023-05-18T15:30:35.163Z,48448
2023-05-18T15:31:51.410Z,44288
2023-05-18T15:33:07.659Z,42816
2023-05-18T15:34:23.904Z,41984
2023-05-18T15:35:40.151Z,40896
2023-05-18T15:36:56.405Z,40384
2023-05-18T15:38:12.658Z,28896
2023-05-18T15:39:23.000Z,35040
2023-05-18T15:40:45.153Z,18396
2023-05-18T15:42:01.406Z,22976
2023-05-18T15:43:17.653Z,39072
2023-05-18T15:44:32.955Z,36928
2023-05-18T15:45:49.203Z,36096
2023-05-18T15:47:05.455Z,35712
2023-05-18T15:48:21.705Z,35040
2023-05-18T15:49:37.949Z,36256
2023-05-18T15:50:54.209Z,36640
2023-05-18T15:52:10.458Z,35232
2023-05-18T15:53:26.705Z,35968
2023-05-18T15:54:42.950Z,36896
2023-05-18T15:55:59.205Z,36416
2023-05-18T15:57:15.454Z,37056
2023-05-18T15:58:31.694Z,35200
2023-05-18T15:59:42.000Z,34848
2023-05-18T16:01:03.257Z,35232
2023-05-18T16:02:19.523Z,32544
2023-05-18T16:03:35.750Z,34816
2023-05-18T16:04:52.009Z,33376
2023-05-18T16:06:08.256Z,17820
2023-05-18T16:07:24.504Z,29632
2023-05-18T16:08:40.754Z,20320
2023-05-18T16:09:57.001Z,43392
2023-05-18T16:11:13.248Z,48032
2023-05-18T16:12:29.506Z,50368
2023-05-18T16:13:45.750Z,52320
2023-05-18T16:15:02.006Z,49888
2023-05-18T16:16:18.254Z,46304
2023-05-18T16:17:28.000Z,44864
2023-05-18T16:18:49.804Z,44000
2023-05-18T16:20:06.062Z,42400
2023-05-18T16:21:22.310Z,41920
2023-05-18T16:22:38.568Z,41760
2023-05-18T16:23:54.809Z,41248
2023-05-18T16:25:11.048Z,41440
2023-05-18T16:26:27.308Z,20096
2023-05-18T16:27:43.552Z,25312
2023-05-18T16:28:59.807Z,43040
2023-05-18T16:30:16.059Z,42592
2023-05-18T16:31:32.304Z,42336
2023-05-18T16:32:48.559Z,30208
2023-05-18T16:34:03.875Z,32352
2023-05-18T16:35:20.119Z,17664
2023-05-18T16:36:31.000Z,15548
2023-05-18T16:37:52.612Z,32768
2023-05-18T16:39:08.856Z,18592
2023-05-18T16:40:25.104Z,15276
2023-05-18T16:41:41.369Z,14780
2023-05-18T16:42:57.607Z,35008
2023-05-18T16:44:13.850Z,37920
2023-05-18T16:45:30.116Z,36992
2023-05-18T16:46:46.363Z,35328
2023-05-18T16:48:02.604Z,35680
2023-05-18T16:49:18.854Z,34784
2023-05-18T16:50:34.167Z,33664
2023-05-18T16:51:50.409Z,33440
2023-05-18T16:53:06.662Z,33408
2023-05-18T16:54:22.913Z,33056
2023-05-18T16:55:33.000Z,32384
2023-05-18T16:56:55.413Z,31616
2023-05-18T16:58:11.662Z,31808
2023-05-18T16:59:27.908Z,32256
2023-05-18T17:00:44.162Z,31168